createdAt,value
2018-06-11T00:00:07.790Z,77.30
2018-06-11T00:02:36.104Z,77.04
2018-06-11T00:05:04.401Z,76.26
2018-06-11T00:07:32.742Z,76.20
2018-06-11T00:10:01.013Z,76.54
2018-06-11T00:12:30.375Z,76.99
2018-06-11T00:14:58.633Z,76.19
2018-06-11T00:17:26.945Z,76.03
2018-06-11T00:19:55.206Z,75.73
2018-06-11T00:22:23.522Z,75.71
2018-06-11T00:24:51.773Z,76.01
2018-06-11T00:27:20.090Z,76.44
2018-06-11T00:29:48.354Z,76.46
2018-06-11T00:32:16.641Z,76.52
2018-06-11T00:34:44.915Z,76.91
2018-06-11T00:37:13.187Z,76.91
2018-06-11T00:39:41.489Z,77.73
2018-06-11T00:42:10.761Z,77.18
2018-06-11T00:44:39.037Z,75.96
2018-06-11T00:47:07.319Z,75.99
2018-06-11T00:49:35.626Z,76.43
2018-06-11T00:52:04.898Z,74.11
2018-06-11T00:54:33.223Z,74.70
2018-06-11T00:57:01.475Z,75.38
2018-06-11T00:59:29.747Z,75.65
2018-06-11T01:01:57.997Z,76.61
2018-06-11T01:04:26.285Z,76.93
2018-06-11T01:06:54.557Z,75.89
2018-06-11T01:09:22.838Z,75.41
2018-06-11T01:11:51.117Z,74.50
2018-06-11T01:14:19.406Z,73.52
2018-06-11T01:16:47.652Z,73.31
2018-06-11T01:19:15.905Z,72.98
2018-06-11T01:21:44.189Z,73.05
2018-06-11T01:24:12.485Z,72.67
2018-06-11T01:26:40.797Z,72.51
2018-06-11T01:29:09.084Z,72.49
2018-06-11T01:31:37.373Z,72.63
2018-06-11T01:34:05.664Z,72.12
2018-06-11T01:36:33.941Z,72.18
2018-06-11T01:39:02.223Z,70.90
2018-06-11T01:41:31.579Z,71.57
2018-06-11T01:43:59.837Z,70.97
2018-06-11T01:46:28.141Z,70.52
2018-06-11T01:48:56.416Z,71.88
2018-06-11T01:51:24.714Z,69.51
2018-06-11T01:53:54.039Z,69.11
2018-06-11T01:56:22.346Z,68.28
2018-06-11T01:58:50.597Z,68.44
2018-06-11T02:01:19.901Z,68.69
2018-06-11T02:03:48.173Z,69.31
2018-06-11T02:06:16.437Z,66.98
2018-06-11T02:08:44.733Z,68.08
2018-06-11T02:11:12.976Z,68.11
2018-06-11T02:13:41.250Z,68.51
2018-06-11T02:16:09.490Z,67.66
2018-06-11T02:18:37.779Z,67.61
2018-06-11T02:21:06.054Z,67.34
2018-06-11T02:23:34.385Z,68.32
2018-06-11T02:26:02.716Z,67.54
2018-06-11T02:28:31.008Z,67.32
2018-06-11T02:30:59.313Z,67.79
2018-06-11T02:33:27.618Z,68.09
2018-06-11T02:35:55.894Z,67.89
2018-06-11T02:38:24.185Z,68.27
2018-06-11T02:40:52.453Z,67.28
2018-06-11T02:43:20.768Z,67.64
2018-06-11T02:45:49.044Z,67.53
2018-06-11T02:48:17.346Z,67.39
2018-06-11T02:50:45.622Z,67.88
2018-06-11T02:53:13.922Z,68.47
2018-06-11T02:55:42.207Z,67.83
2018-06-11T02:58:10.506Z,68.43
2018-06-11T03:00:38.820Z,67.83
2018-06-11T03:03:07.101Z,68.30
2018-06-11T03:05:35.389Z,68.86
2018-06-11T03:08:03.763Z,69.04
2018-06-11T03:10:32.066Z,69.55
2018-06-11T03:13:00.336Z,68.60
2018-06-11T03:15:28.664Z,68.27
2018-06-11T03:17:56.938Z,68.88
2018-06-11T03:20:25.232Z,68.57
2018-06-11T03:22:53.570Z,68.56
2018-06-11T03:25:21.888Z,68.82
2018-06-11T03:27:50.159Z,70.01
2018-06-11T03:30:18.469Z,69.77
2018-06-11T03:32:46.733Z,70.08
2018-06-11T03:35:15.007Z,70.34
2018-06-11T03:37:43.299Z,70.40
2018-06-11T03:40:11.558Z,69.36
2018-06-11T03:42:39.861Z,69.73
2018-06-11T03:45:08.129Z,70.99
2018-06-11T03:47:36.413Z,71.22
2018-06-11T03:50:04.737Z,70.67
2018-06-11T03:52:33.077Z,71.20
2018-06-11T03:55:01.369Z,70.25
2018-06-11T03:57:29.689Z,71.12
2018-06-11T03:59:59.019Z,70.95
2018-06-11T04:02:27.338Z,71.49
2018-06-11T04:04:55.613Z,70.60
2018-06-11T04:07:25.010Z,70.61
2018-06-11T04:09:53.280Z,70.36
2018-06-11T04:12:21.569Z,70.81
2018-06-11T04:14:50.153Z,72.00
2018-06-11T04:17:18.446Z,71.57
2018-06-11T04:19:46.713Z,71.31
2018-06-11T04:22:15.053Z,70.90
2018-06-11T04:24:43.345Z,70.79
2018-06-11T04:27:11.621Z,70.51
2018-06-11T04:29:39.941Z,69.25
2018-06-11T04:32:08.203Z,68.79
2018-06-11T04:34:37.558Z,67.56
2018-06-11T04:37:05.873Z,67.18
2018-06-11T04:39:34.184Z,65.92
2018-06-11T04:42:02.465Z,64.47
2018-06-11T04:44:30.765Z,64.47
2018-06-11T04:46:59.037Z,63.68
2018-06-11T04:49:27.349Z,62.77
2018-06-11T04:51:55.630Z,63.26
2018-06-11T04:54:23.956Z,59.84
2018-06-11T04:56:52.226Z,59.68
2018-06-11T04:59:20.545Z,58.39
2018-06-11T05:01:48.833Z,58.45
2018-06-11T05:04:17.153Z,59.58
2018-06-11T05:06:46.440Z,60.02
2018-06-11T05:09:14.704Z,59.64
2018-06-11T05:11:43.007Z,60.42
2018-06-11T05:14:11.292Z,58.65
2018-06-11T05:16:41.623Z,59.60
2018-06-11T05:19:09.889Z,58.73
2018-06-11T05:21:38.181Z,58.19
2018-06-11T05:24:06.498Z,58.26
2018-06-11T05:26:34.782Z,57.25
2018-06-11T05:29:03.093Z,58.20
2018-06-11T05:31:31.401Z,58.12
2018-06-11T05:33:59.687Z,58.28
2018-06-11T05:36:28.012Z,58.23
2018-06-11T05:38:57.316Z,57.86
2018-06-11T05:41:25.622Z,58.02
2018-06-11T05:43:54.877Z,57.20
2018-06-11T05:46:23.189Z,57.10
2018-06-11T05:48:51.469Z,56.08
2018-06-11T05:51:20.731Z,57.31
2018-06-11T05:53:49.053Z,55.90
2018-06-11T05:56:17.401Z,55.60
2018-06-11T05:58:45.699Z,55.27
2018-06-11T06:01:13.992Z,54.94
2018-06-11T06:03:42.331Z,55.88
2018-06-11T06:06:10.607Z,55.49
2018-06-11T06:08:38.950Z,56.37
2018-06-11T06:11:07.197Z,55.57
2018-06-11T06:13:35.510Z,54.85
2018-06-11T06:16:03.769Z,56.28
2018-06-11T06:18:32.061Z,55.63
2018-06-11T06:21:03.948Z,55.41
2018-06-11T06:23:32.445Z,56.48
2018-06-11T06:26:01.841Z,56.22
2018-06-11T06:28:30.222Z,55.47
2018-06-11T06:30:58.493Z,55.53
2018-06-11T06:33:27.809Z,57.46
2018-06-11T06:35:56.083Z,57.89
2018-06-11T06:38:24.361Z,56.00
2018-06-11T06:40:52.652Z,56.14
2018-06-11T06:43:22.201Z,57.42
2018-06-11T06:45:50.489Z,56.68
2018-06-11T06:48:18.769Z,58.36
2018-06-11T06:50:47.073Z,58.54
2018-06-11T06:53:15.483Z,58.75
2018-06-11T06:55:43.815Z,58.32
2018-06-11T06:58:12.077Z,58.98
2018-06-11T07:00:40.345Z,59.33
2018-06-11T07:03:08.617Z,57.69
2018-06-11T07:05:36.905Z,56.62
2018-06-11T07:08:05.226Z,55.33
2018-06-11T07:10:33.534Z,54.72
2018-06-11T07:13:01.942Z,56.39
2018-06-11T07:21:11.878Z,56.47
2018-06-11T07:23:40.177Z,55.00
2018-06-11T07:26:08.481Z,55.37
2018-06-11T07:28:36.754Z,55.53
2018-06-11T07:31:05.030Z,55.00
2018-06-11T07:33:33.328Z,56.21
2018-06-11T07:36:01.590Z,55.72
2018-06-11T07:38:31.004Z,55.67
2018-06-11T07:40:59.318Z,55.04
2018-06-11T07:43:27.637Z,54.78
2018-06-11T07:45:55.913Z,55.63
2018-06-11T07:48:24.216Z,53.32
2018-06-11T07:50:52.512Z,53.77
2018-06-11T07:53:20.853Z,55.16
2018-06-11T07:55:49.129Z,55.00
2018-06-11T07:58:18.413Z,51.67
2018-06-11T08:00:46.707Z,52.17
2018-06-11T08:03:15.045Z,53.03
2018-06-11T08:05:43.326Z,50.05
2018-06-11T08:08:11.641Z,49.67
2018-06-11T08:10:39.941Z,50.21
2018-06-11T08:13:08.202Z,49.04
2018-06-11T08:15:36.505Z,50.32
2018-06-11T08:18:04.842Z,50.40
2018-06-11T08:20:33.177Z,50.26
2018-06-11T08:23:01.471Z,49.30
2018-06-11T08:25:29.811Z,50.02
2018-06-11T08:27:58.080Z,49.73
2018-06-11T08:30:26.429Z,49.01
2018-06-11T08:32:55.697Z,49.10
2018-06-11T08:35:23.996Z,48.88
2018-06-11T08:37:52.261Z,50.86
2018-06-11T08:40:20.551Z,51.15
2018-06-11T08:42:48.810Z,51.73
2018-06-11T08:45:17.101Z,50.06
2018-06-11T08:47:45.453Z,51.61
2018-06-11T08:50:13.759Z,51.29
2018-06-11T08:52:42.092Z,52.81
2018-06-11T08:55:11.355Z,54.07
2018-06-11T08:57:39.702Z,56.60
2018-06-11T09:00:08.288Z,57.13
2018-06-11T09:02:36.597Z,56.10
2018-06-11T09:05:05.129Z,52.67
2018-06-11T09:07:33.549Z,51.99
2018-06-11T09:10:01.832Z,49.44
2018-06-11T09:12:30.125Z,49.15
2018-06-11T09:14:58.453Z,47.70
2018-06-11T09:17:26.845Z,49.43
2018-06-11T09:19:55.226Z,50.17
2018-06-11T09:22:23.542Z,49.81
2018-06-11T09:24:51.888Z,49.81
2018-06-11T09:27:20.225Z,50.25
2018-06-11T09:29:48.482Z,47.76
2018-06-11T09:32:16.909Z,49.29
2018-06-11T09:34:45.177Z,49.13
2018-06-11T09:37:13.606Z,47.75
2018-06-11T09:39:41.877Z,49.36
2018-06-11T09:42:11.229Z,49.32
2018-06-11T09:44:39.611Z,51.53
2018-06-11T09:47:07.889Z,53.00
2018-06-11T09:49:36.187Z,53.32
2018-06-11T09:52:04.483Z,53.81
2018-06-11T09:54:32.816Z,50.76
2018-06-11T09:57:01.093Z,49.02
2018-06-11T09:59:29.401Z,45.08
2018-06-11T10:01:57.673Z,43.64
2018-06-11T10:04:25.989Z,42.84
2018-06-11T10:06:54.257Z,45.70
2018-06-11T10:09:22.573Z,48.07
2018-06-11T10:11:51.906Z,46.05
2018-06-11T10:14:20.209Z,46.59
2018-06-11T10:16:48.489Z,46.00
2018-06-11T10:19:16.784Z,44.51
2018-06-11T10:21:45.053Z,44.97
2018-06-11T10:24:13.357Z,43.54
2018-06-11T10:26:41.689Z,43.76
2018-06-11T10:29:10.105Z,45.03
2018-06-11T10:31:38.381Z,46.84
2018-06-11T10:34:06.693Z,46.91
2018-06-11T10:36:34.969Z,48.84
2018-06-11T10:39:03.855Z,48.37
2018-06-11T10:41:33.181Z,48.39
2018-06-11T10:44:01.498Z,46.14
2018-06-11T10:46:29.789Z,44.66
2018-06-11T10:48:58.071Z,44.62
2018-06-11T10:51:26.393Z,45.72
2018-06-11T10:53:54.649Z,47.22
2018-06-11T10:56:22.969Z,47.32
2018-06-11T10:58:51.346Z,45.61
2018-06-11T11:01:20.789Z,44.82
2018-06-11T11:03:49.053Z,45.54
2018-06-11T11:06:21.177Z,45.55
2018-06-11T11:08:49.490Z,44.47
2018-06-11T11:11:17.742Z,42.89
2018-06-11T11:13:46.228Z,42.26
2018-06-11T11:16:14.533Z,41.92
2018-06-11T11:18:42.805Z,43.05
2018-06-11T11:21:11.073Z,43.03
2018-06-11T11:23:39.466Z,42.24
2018-06-11T11:26:07.756Z,43.63
2018-06-11T11:28:37.145Z,43.22
2018-06-11T11:31:06.465Z,42.85
2018-06-11T11:33:35.932Z,43.91
2018-06-11T11:36:04.209Z,43.95
2018-06-11T11:38:32.511Z,44.21
2018-06-11T11:41:00.879Z,44.26
2018-06-11T11:43:29.253Z,43.41
2018-06-11T11:45:57.611Z,42.49
2018-06-11T11:48:25.903Z,42.88
2018-06-11T11:50:54.268Z,42.97
2018-06-11T11:53:22.580Z,42.49
2018-06-11T11:55:51.865Z,42.49
2018-06-11T11:58:20.249Z,44.72
2018-06-11T12:00:49.579Z,44.20
2018-06-11T12:03:17.945Z,42.11
2018-06-11T12:05:46.411Z,42.60
2018-06-11T12:08:14.848Z,41.84
2018-06-11T12:10:43.164Z,43.31
2018-06-11T12:13:11.781Z,44.08
2018-06-11T12:15:40.245Z,42.15
2018-06-11T12:18:08.553Z,41.42
2018-06-11T12:20:36.836Z,43.14
2018-06-11T12:23:05.120Z,41.77
2018-06-11T12:25:33.437Z,43.59
2018-06-11T12:28:02.721Z,45.61
2018-06-11T12:30:31.117Z,43.50
2018-06-11T12:32:59.389Z,42.90
2018-06-11T12:35:27.705Z,44.14
2018-06-11T12:37:56.018Z,45.80
2018-06-11T12:40:24.346Z,45.17
2018-06-11T12:42:52.676Z,43.48
2018-06-11T12:45:22.041Z,42.49
2018-06-11T12:47:50.389Z,42.99
2018-06-11T12:50:18.822Z,42.47
2018-06-11T12:52:47.133Z,43.30
2018-06-11T12:55:15.492Z,44.28
2018-06-11T12:57:44.821Z,41.95
2018-06-11T13:00:13.245Z,40.97
2018-06-11T13:02:41.582Z,39.60
2018-06-11T13:05:09.858Z,41.01
2018-06-11T13:07:38.220Z,42.99
2018-06-11T13:10:06.609Z,42.61
2018-06-11T13:12:34.983Z,40.78
2018-06-11T13:15:03.247Z,41.84
2018-06-11T13:17:31.536Z,41.14
2018-06-11T13:19:59.801Z,42.01
2018-06-11T13:22:28.097Z,44.71
2018-06-11T13:24:56.373Z,43.07
2018-06-11T13:27:24.673Z,42.28
2018-06-11T13:29:52.925Z,42.02
2018-06-11T13:32:22.408Z,41.23
2018-06-11T13:34:50.798Z,40.61
2018-06-11T13:37:19.060Z,41.40
2018-06-11T13:39:47.353Z,40.47
2018-06-11T13:42:15.633Z,39.97
2018-06-11T13:44:44.041Z,36.34
2018-06-11T13:47:12.371Z,35.81
2018-06-11T13:49:40.790Z,37.35
2018-06-11T13:52:09.150Z,36.55
2018-06-11T13:54:37.634Z,36.69
2018-06-11T13:57:05.882Z,35.28
2018-06-11T13:59:34.367Z,32.42
2018-06-11T14:02:02.753Z,31.29
2018-06-11T14:04:31.194Z,37.77
2018-06-11T14:07:00.517Z,37.63
2018-06-11T14:09:32.205Z,34.71
2018-06-11T14:12:00.534Z,37.70
2018-06-11T14:14:28.817Z,36.89
2018-06-11T14:16:57.181Z,38.03
2018-06-11T14:19:25.504Z,39.95
2018-06-11T14:21:53.873Z,36.43
2018-06-11T14:24:22.171Z,34.41
2018-06-11T14:26:50.636Z,35.92
2018-06-11T14:29:18.896Z,35.24
2018-06-11T14:32:50.452Z,30.98
2018-06-11T14:35:22.849Z,34.14
2018-06-11T14:37:51.201Z,36.15
2018-06-11T14:40:19.593Z,31.48
2018-06-11T14:42:47.969Z,22.26
2018-06-11T14:45:17.312Z,28.72
2018-06-11T14:47:45.589Z,26.03
2018-06-11T14:50:13.929Z,24.15
2018-06-11T14:52:42.356Z,25.90
2018-06-11T14:55:10.822Z,31.32
2018-06-11T14:57:40.631Z,37.94
2018-06-11T15:00:12.324Z,39.84
2018-06-11T15:08:46.981Z,28.48
2018-06-11T15:11:16.552Z,24.67
2018-06-11T15:13:48.550Z,28.59
2018-06-11T15:16:17.315Z,27.18
2018-06-11T15:22:06.984Z,24.81
2018-06-11T15:27:27.863Z,26.20
2018-06-11T15:29:56.418Z,25.54
2018-06-11T15:32:25.109Z,34.29
2018-06-11T15:41:23.175Z,27.67
2018-06-11T15:48:46.873Z,25.36
2018-06-11T15:51:22.813Z,25.96
2018-06-11T15:53:53.563Z,29.24
2018-06-11T15:59:30.376Z,27.82
2018-06-11T16:02:13.436Z,33.80
2018-06-11T16:05:02.247Z,26.68
2018-06-11T16:07:30.545Z,27.01
2018-06-11T16:10:12.375Z,24.97
2018-06-11T16:12:40.641Z,21.51
2018-06-11T16:15:08.944Z,20.85
2018-06-11T16:17:37.355Z,20.93
2018-06-11T16:20:05.923Z,31.67
2018-06-11T16:25:29.150Z,35.13
2018-06-11T16:27:57.785Z,43.10
2018-06-11T16:30:31.602Z,44.40
2018-06-11T16:33:06.632Z,44.10
2018-06-11T16:35:48.608Z,34.98
2018-06-11T16:38:21.261Z,41.90
2018-06-11T16:40:59.209Z,39.45
2018-06-11T16:43:29.638Z,43.32
2018-06-11T16:45:57.893Z,40.60
2018-06-11T16:48:27.125Z,37.05
2018-06-11T16:50:55.486Z,43.01
2018-06-11T16:53:23.808Z,35.73
2018-06-11T16:55:53.252Z,41.31
2018-06-11T16:58:21.541Z,41.87
2018-06-11T17:00:49.845Z,47.73
2018-06-11T17:03:18.202Z,43.45
2018-06-11T17:05:46.781Z,44.72
2018-06-11T17:08:15.118Z,46.73
2018-06-11T17:10:46.055Z,47.41
2018-06-11T17:13:14.363Z,48.60
2018-06-11T17:15:42.720Z,45.59
2018-06-11T17:18:11.033Z,39.31
2018-06-11T17:20:39.367Z,45.88
2018-06-11T17:23:09.804Z,49.17
2018-06-11T17:25:38.197Z,49.64
2018-06-11T17:28:06.913Z,36.39
2018-06-11T17:30:35.223Z,34.20
2018-06-11T17:33:04.557Z,41.83
2018-06-11T17:35:32.858Z,48.97
2018-06-11T17:38:01.173Z,49.83
2018-06-11T17:40:29.500Z,50.77
2018-06-11T17:42:57.913Z,51.44
2018-06-11T17:45:26.269Z,50.87
2018-06-11T17:47:54.670Z,50.91
2018-06-11T17:50:22.987Z,52.87
2018-06-11T17:52:52.318Z,51.70
2018-06-11T17:55:20.613Z,51.45
2018-06-11T17:57:50.065Z,51.56
2018-06-11T18:00:18.376Z,50.51
2018-06-11T18:02:46.737Z,51.94
2018-06-11T18:05:15.046Z,53.49
2018-06-11T18:07:43.393Z,52.84
2018-06-11T18:10:11.791Z,53.31
2018-06-11T18:12:40.082Z,54.08
2018-06-11T18:15:08.381Z,53.85
2018-06-11T18:17:36.726Z,55.23
2018-06-11T18:20:05.098Z,55.04
2018-06-11T18:22:33.490Z,55.53
2018-06-11T18:25:01.840Z,55.88
2018-06-11T18:27:30.241Z,57.17
2018-06-11T18:29:58.598Z,56.26
2018-06-11T18:32:27.921Z,57.30
2018-06-11T18:34:56.197Z,58.33
2018-06-11T18:37:24.582Z,59.29
2018-06-11T18:39:52.865Z,60.04
2018-06-11T18:42:21.169Z,60.65
2018-06-11T18:44:49.462Z,60.37
2018-06-11T18:47:17.793Z,59.82
2018-06-11T18:49:46.128Z,57.32
2018-06-11T18:52:14.446Z,55.20
2018-06-11T18:54:42.782Z,55.08
2018-06-11T18:57:11.109Z,54.82
2018-06-11T18:59:39.473Z,54.37
2018-06-11T19:02:07.918Z,54.46
2018-06-11T19:04:36.211Z,53.79
2018-06-11T19:07:04.578Z,53.59
2018-06-11T19:09:32.892Z,54.58
2018-06-11T19:12:01.256Z,54.42
2018-06-11T19:14:29.649Z,54.71
2018-06-11T19:16:58.019Z,54.76
2018-06-11T19:19:26.408Z,56.30
2018-06-11T19:21:54.759Z,56.31
2018-06-11T19:24:23.177Z,56.58
2018-06-11T19:26:51.525Z,56.81
2018-06-11T19:29:19.938Z,57.68
2018-06-11T19:31:48.289Z,58.30
2018-06-11T19:34:18.626Z,59.08
2018-06-11T19:36:46.918Z,58.64
2018-06-11T19:39:15.273Z,58.58
2018-06-11T19:41:43.643Z,58.88
2018-06-11T19:44:12.021Z,58.79
2018-06-11T19:46:40.413Z,58.01
2018-06-11T19:49:09.804Z,56.79
2018-06-11T19:51:38.179Z,56.49
2018-06-11T19:54:07.541Z,56.35
2018-06-11T19:56:35.920Z,56.38
2018-06-11T19:59:05.244Z,56.67
2018-06-11T20:01:33.654Z,56.75
2018-06-11T20:04:02.107Z,57.23
2018-06-11T20:06:30.515Z,57.28
2018-06-11T20:09:00.491Z,57.69
2018-06-11T20:11:28.894Z,56.47
2018-06-11T20:13:57.277Z,56.37
2018-06-11T20:16:25.669Z,56.18
2018-06-11T20:18:54.023Z,56.63
2018-06-11T20:24:12.668Z,54.82
2018-06-11T20:26:40.970Z,55.38
2018-06-11T20:29:09.258Z,55.28
2018-06-11T20:31:37.585Z,55.55
2018-06-11T20:34:05.866Z,55.26
2018-06-11T20:36:34.172Z,55.32
2018-06-11T20:39:03.586Z,55.31
2018-06-11T20:41:32.997Z,55.82
2018-06-11T20:44:01.278Z,55.54
2018-06-11T20:46:30.721Z,56.00
2018-06-11T20:48:59.001Z,56.44
2018-06-11T20:51:27.297Z,56.46
2018-06-11T20:53:55.601Z,55.90
2018-06-11T20:56:29.655Z,55.93
2018-06-11T20:59:00.951Z,56.32
2018-06-11T21:01:29.351Z,56.17
2018-06-11T21:03:59.818Z,56.75
2018-06-11T21:06:28.258Z,56.90
2018-06-11T21:08:56.643Z,56.97
2018-06-11T21:11:24.918Z,57.08
2018-06-11T21:13:54.362Z,56.83
2018-06-11T21:16:22.661Z,56.97
2018-06-11T21:18:51.413Z,57.26
2018-06-11T21:21:19.743Z,57.11
2018-06-11T21:23:48.109Z,57.19
2018-06-11T21:26:16.512Z,57.03
2018-06-11T21:28:44.960Z,56.94
2018-06-11T21:31:13.335Z,57.24
2018-06-11T21:33:41.793Z,58.27
2018-06-11T21:36:10.123Z,58.32
2018-06-11T21:38:38.417Z,58.22
2018-06-11T21:41:14.991Z,58.61
2018-06-11T21:43:44.403Z,58.90
2018-06-11T21:46:15.317Z,59.07
2018-06-11T21:48:45.287Z,59.42
2018-06-11T21:51:17.292Z,59.69
2018-06-11T21:53:46.749Z,58.94
2018-06-11T21:56:16.178Z,59.33
2018-06-11T21:58:44.787Z,59.19
2018-06-11T22:01:13.242Z,58.73
2018-06-11T22:03:41.739Z,58.70
2018-06-11T22:06:12.090Z,58.03
2018-06-11T22:08:40.436Z,58.89
2018-06-11T22:11:08.802Z,59.56
2018-06-11T22:13:38.095Z,59.42
2018-06-11T22:16:06.529Z,59.36
2018-06-11T22:18:34.805Z,59.80
2018-06-11T22:21:03.091Z,59.66
2018-06-11T22:23:31.419Z,59.28
2018-06-11T22:25:59.743Z,59.14
2018-06-11T22:28:28.055Z,59.01
2018-06-11T22:30:56.352Z,58.79
2018-06-11T22:33:24.669Z,59.18
2018-06-11T22:35:53.989Z,58.03
2018-06-11T22:38:22.293Z,58.26
2018-06-11T22:40:51.604Z,57.61
2018-06-11T22:43:19.937Z,57.02
2018-06-11T22:45:48.225Z,57.25
2018-06-11T22:48:16.543Z,57.33
2018-06-11T22:50:44.884Z,57.63
2018-06-11T22:53:13.254Z,58.68
2018-06-11T22:55:41.538Z,58.28
2018-06-11T22:58:09.882Z,58.76
2018-06-11T23:00:38.161Z,58.17
2018-06-11T23:03:06.522Z,58.73
2018-06-11T23:05:34.824Z,58.51
2018-06-11T23:08:03.136Z,58.78
2018-06-11T23:10:31.448Z,59.15
2018-06-11T23:12:59.984Z,58.78
2018-06-11T23:15:28.330Z,59.34
2018-06-11T23:17:56.618Z,59.49
2018-06-11T23:20:25.942Z,58.52
2018-06-11T23:22:54.205Z,58.36
2018-06-11T23:25:22.571Z,58.60
2018-06-11T23:27:50.878Z,58.37
2018-06-11T23:30:20.181Z,58.78
2018-06-11T23:32:48.452Z,59.58
2018-06-11T23:35:16.745Z,59.49
2018-06-11T23:37:46.129Z,59.53
2018-06-11T23:40:14.493Z,59.80
2018-06-11T23:42:43.798Z,59.83
2018-06-11T23:45:13.113Z,60.50
2018-06-11T23:47:41.453Z,60.47
2018-06-11T23:50:13.053Z,59.95
2018-06-11T23:52:41.765Z,59.45
2018-06-11T23:55:11.115Z,59.64
2018-06-11T23:57:39.418Z,59.86
